Flight Track Log - Related Links

Times and Time Zones

All times are in EDT time to prevent confusion due to time zone crossing. See the EJA808 flight status page for this flight to view local times or setup timezone preferences in your user account.

Time Position Orientation Groundspeed Altitude Reporting Facility
EDT Latitude Longitude Course Direction KTS MPH feet Rate Location/Type
Wed 04:00:49 PM 39.8833 -75.2000 113° Southeast 164 189 600  Level Philadelphia TRACON
Wed 04:01:37 PM 39.8667 -75.1500 113° Southeast 221 254 3,400 3,198 Climbing Philadelphia TRACON
Wed 04:04:06 PM 39.8253 -74.9389 104° East 263 303 11,100 2,457 Climbing New York Center
Wed 04:05:07 PM 39.8100 -74.8353 101° East 297 342 12,000 458 Climbing New York Center
Wed 04:06:04 PM 39.7953 -74.7156 99° East 315 362 12,000 661 Level New York Center
Wed 04:07:05 PM 39.8033 -74.5997 85° East 321 369 13,300 1,426 Climbing New York Center
Wed 04:08:06 PM 39.8136 -74.4786 84° East 321 369 14,900 1,131 Climbing New York Center
Wed 04:09:07 PM 39.8158 -74.3408 89° East 337 388 15,600 1,475 Climbing New York Center
Wed 04:10:04 PM 39.8419 -74.2314 73° East 337 388 17,800 2,201 Climbing New York Center
Wed 04:12:26 PM 39.9700 -74.0158 52° Northeast 326 375 22,900 1,545 Climbing Boston Center
Wed 04:13:26 PM 40.0256 -73.9058 57° Northeast 345 397 23,000 50 Climbing Boston Center
Wed 04:14:26 PM 40.0917 -73.7961 52° Northeast 368 423 23,000  Level Boston Center
Wed 04:15:26 PM 40.1511 -73.6833 55° Northeast 373 429 23,000  Level Boston Center
Wed 04:16:26 PM 40.2231 -73.5814 47° Northeast 378 435 23,000  Level Boston Center
Wed 04:17:26 PM 40.3033 -73.4903 41° Northeast 378 435 23,000  Level Boston Center
Wed 04:18:26 PM 40.3811 -73.3989 42° Northeast 373 429 23,000  Level Boston Center
Wed 04:19:26 PM 40.4611 -73.3075 41° Northeast 373 429 23,000  Level Boston Center
Wed 04:20:26 PM 40.5389 -73.2156 42° Northeast 373 429 23,000 -250 Level Boston Center
Wed 04:21:26 PM 40.6167 -73.1208 43° Northeast 373 429 22,500 -750 Descending Boston Center
Wed 04:22:26 PM 40.6942 -73.0314 41° Northeast 368 423 21,500 -950 Descending Boston Center
Wed 04:23:26 PM 40.7739 -72.9444 40° Northeast 368 423 20,600 -900 Descending Boston Center
Wed 04:24:26 PM 40.8511 -72.8544 41° Northeast 368 423 19,700 -950 Descending Boston Center
Wed 04:25:26 PM 40.9244 -72.7614 44° Northeast 363 418 18,700 -850 Descending Boston Center
Wed 04:26:26 PM 40.9850 -72.6903 42° Northeast 363 418 18,000 -650 Descending Boston Center
Wed 04:27:26 PM 41.0811 -72.5750 42° Northeast 368 423 17,400 -850 Descending Boston Center
Wed 04:28:26 PM 41.1519 -72.4869 43° Northeast 355 409 16,300 -1,100 Descending Boston Center
Wed 04:29:26 PM 41.2250 -72.4014 41° Northeast 350 403 15,200 -857 Descending Boston Center
Wed 04:29:57 PM 41.2644 -72.3600 38° Northeast 346 398 15,000 -400 Descending Boston Center
Wed 04:30:26 PM 41.2875 -72.3294 45° Northeast 339 390 14,800 -985 Descending Boston Center
Wed 04:31:04 PM 41.3375 -72.2658 44° Northeast 343 395 13,900 -1,500 Descending Boston Center
Wed 04:31:26 PM 41.3664 -72.2328 41° Northeast 345 397 13,300 -900 Descending Boston Center
Wed 04:32:04 PM 41.4103 -72.1800 42° Northeast 339 390 13,000 -182 Descending Boston Center
Wed 04:33:05 PM 41.4786 -72.0936 43° Northeast 337 388 13,000  Level Boston Center
Wed 04:33:26 PM 41.5058 -72.0631 40° Northeast 335 386 13,000 -295 Level Boston Center
Wed 04:34:06 PM 41.5514 -72.0103 41° Northeast 337 388 12,700 -600 Descending Boston Center
Wed 04:34:26 PM 41.5658 -71.9906 46° Northeast 335 386 12,400 -1,275 Descending Boston Center
Wed 04:35:26 PM 41.6406 -71.8956 44° Northeast 335 386 11,000 -1,592 Descending Boston Center
Wed 04:37:42 PM 41.7667 -71.7333 44° Northeast 271 312 7,200 -1,622 Descending KA90
Wed 04:38:42 PM 41.8167 -71.6667 45° Northeast 243 280 5,700 -1,488 Descending KA90
Wed 04:39:43 PM 41.8667 -71.6000 45° Northeast 249 287 4,200 -1,300 Descending KA90
Wed 04:40:42 PM 41.9167 -71.5500 37° Northeast 253 291 3,100 -605 Descending KA90
Wed 04:41:42 PM 41.9667 -71.4833 45° Northeast 236 272 3,000  Descending KA90
Wed 04:42:42 PM 42.0167 -71.4333 37° Northeast 225 259 3,100  Climbing KA90
Wed 04:43:42 PM 42.0500 -71.3667 56° Northeast 210 242 3,000 -347 Descending KA90
Wed 04:44:43 PM 42.0833 -71.3167 48° Northeast 188 216 2,400 -645 Descending KA90
Wed 04:45:43 PM 42.1167 -71.2667 48° Northeast 185 213 1,700 -350 Descending KA90
Wed 04:46:43 PM 42.1667 -71.2500 14° North 179 206 1,700 -50 Level KA90
Wed 04:47:43 PM 42.2167 -71.2500 360° North 144 166 1,600 -200 Descending KA90
Wed 04:48:43 PM 42.2167 -71.2167 90° East 117 135 1,300 -550 Descending KA90
Wed 04:49:43 PM 42.2167 -71.1833 90° East 112 129 500 -800 Descending KA90
Wed 04:51:00 PM 42.1905 -71.1729 51° Northeast  Level Estimated
Wed 04:58:00 PM 42.1905 -71.1729 51° Northeast  Level Estimated

Login

Don't have an account? Register now (free) for customized features, flight alerts, and more!